Time;durP1;ratioP1;P1;durP2;ratioP2;P2;SDS_P1;SDS_P2;PMS_P1;PMS_P2;Temp;Humidity;BMP_temperature;BMP_pressure;BME280_temperature;BME280_humidity;BME280_pressure;Samples;Min_cycle;Max_cycle;Signal;HPM_P1;HPM_P2
2021/12/27 00:02:15;;;;;;;5.90;5.25;;;4.90;99.90;;;;;;5057661;28;20771;-71
2021/12/27 00:04:46;;;;;;;8.20;5.88;;;4.90;99.90;;;;;;5047000;28;20244;-72
2021/12/27 00:07:27;;;;;;;6.30;5.70;;;4.90;99.90;;;;;;5048338;28;20338;-71
2021/12/27 00:10:08;;;;;;;7.45;4.57;;;4.90;99.90;;;;;;5047748;28;20184;-72
2021/12/27 00:12:47;;;;;;;7.28;4.95;;;4.90;99.90;;;;;;5031400;28;20703;-71
2021/12/27 00:15:42;;;;;;;5.47;4.65;;;4.90;99.90;;;;;;5038402;28;20231;-72
2021/12/27 00:18:26;;;;;;;6.45;5.20;;;4.90;99.90;;;;;;5048078;28;20201;-71
2021/12/27 00:21:00;;;;;;;6.63;5.40;;;4.90;99.90;;;;;;5043061;28;20247;-72
2021/12/27 00:23:38;;;;;;;6.82;5.40;;;4.90;99.90;;;;;;5047088;28;20208;-72
2021/12/27 00:26:15;;;;;;;7.95;6.00;;;4.90;99.90;;;;;;5048424;28;20221;-71
2021/12/27 00:28:46;;;;;;;5.25;4.25;;;4.90;99.90;;;;;;5033484;28;20220;-72
2021/12/27 00:31:22;;;;;;;5.47;4.95;;;4.90;99.90;;;;;;5041374;28;20594;-72
2021/12/27 00:33:56;;;;;;;5.35;4.40;;;4.90;99.90;;;;;;5029843;28;20440;-72
2021/12/27 00:36:39;;;;;;;6.63;5.55;;;4.90;99.90;;;;;;5044795;28;20219;-71
2021/12/27 00:39:13;;;;;;;5.80;5.20;;;4.90;99.90;;;;;;5045876;28;20192;-72
2021/12/27 00:41:43;;;;;;;7.43;5.03;;;4.90;99.90;;;;;;5046091;28;20821;-72
2021/12/27 00:44:22;;;;;;;6.38;4.40;;;4.90;99.90;;;;;;5047560;28;20221;-72
2021/12/27 00:46:54;;;;;;;6.05;4.57;;;4.90;99.90;;;;;;5026471;28;20602;-70
2021/12/27 00:49:24;;;;;;;6.18;4.63;;;4.90;99.90;;;;;;5048095;28;20208;-71
2021/12/27 00:51:58;;;;;;;5.60;4.75;;;4.90;99.90;;;;;;5062075;28;20273;-71
2021/12/27 00:54:27;;;;;;;5.95;4.50;;;4.90;99.90;;;;;;5046975;28;20212;-72
2021/12/27 00:56:59;;;;;;;5.43;4.80;;;4.90;99.90;;;;;;5033030;28;20213;-71
2021/12/27 00:59:41;;;;;;;5.75;4.80;;;4.90;99.90;;;;;;5053869;28;20609;-73
2021/12/27 01:02:16;;;;;;;4.85;3.90;;;4.90;99.90;;;;;;5044476;28;20228;-72
2021/12/27 01:04:49;;;;;;;4.47;3.92;;;4.90;99.90;;;;;;5060160;28;20222;-72
2021/12/27 01:07:36;;;;;;;6.90;4.85;;;4.90;99.90;;;;;;5047523;28;20938;-72
2021/12/27 01:10:26;;;;;;;5.47;4.40;;;4.90;99.90;;;;;;5045096;28;20340;-71
2021/12/27 01:13:17;;;;;;;5.35;4.75;;;4.90;99.90;;;;;;5032597;28;20189;-71
2021/12/27 01:16:10;;;;;;;6.95;4.50;;;4.90;99.90;;;;;;5044866;28;20594;-71
2021/12/27 01:18:49;;;;;;;6.40;4.05;;;5.00;99.90;;;;;;5063324;28;20192;-71
2021/12/27 01:21:34;;;;;;;5.47;4.55;;;4.90;99.90;;;;;;5047525;28;20216;-71
2021/12/27 01:24:17;;;;;;;5.90;4.05;;;4.90;99.90;;;;;;5034390;28;20213;-71
2021/12/27 01:27:01;;;;;;;5.43;4.57;;;4.90;99.90;;;;;;5039539;28;20307;-71
2021/12/27 01:29:43;;;;;;;5.60;4.78;;;4.90;99.90;;;;;;5045255;28;20184;-72
2021/12/27 01:32:22;;;;;;;5.55;4.22;;;4.90;99.90;;;;;;5062805;28;20219;-71
2021/12/27 01:34:57;;;;;;;4.15;3.75;;;4.90;99.90;;;;;;5039736;28;20207;-72
2021/12/27 01:37:29;;;;;;;4.70;4.15;;;4.90;99.90;;;;;;5048052;28;20269;-71
2021/12/27 01:40:02;;;;;;;5.28;4.53;;;4.90;99.90;;;;;;5046065;28;20199;-71
2021/12/27 01:42:31;;;;;;;5.00;4.10;;;4.90;99.90;;;;;;5038080;28;20217;-72
2021/12/27 01:45:01;;;;;;;5.03;4.07;;;4.90;99.90;;;;;;5045725;28;20250;-71
2021/12/27 01:47:37;;;;;;;4.25;3.40;;;4.90;99.90;;;;;;5046339;28;21297;-70
2021/12/27 01:50:20;;;;;;;5.50;4.35;;;4.90;99.90;;;;;;5018884;28;20303;-72
2021/12/27 01:52:50;;;;;;;8.20;5.20;;;4.90;99.90;;;;;;5046042;28;20222;-71
2021/12/27 01:55:24;;;;;;;4.38;3.78;;;4.90;99.90;;;;;;5045744;28;20266;-72
2021/12/27 01:58:02;;;;;;;5.18;4.65;;;4.90;99.90;;;;;;5065309;28;20226;-71
2021/12/27 02:00:35;;;;;;;5.30;4.63;;;4.90;99.90;;;;;;5066209;28;20215;-71
2021/12/27 02:03:04;;;;;;;4.38;3.92;;;4.90;99.90;;;;;;5066026;28;20198;-72
2021/12/27 02:05:38;;;;;;;4.35;3.95;;;4.90;99.90;;;;;;5054263;28;20296;-70
2021/12/27 02:11:06;;;;;;;5.28;3.88;;;4.90;99.90;;;;;;5053363;28;20293;-71
2021/12/27 02:13:42;;;;;;;5.65;3.35;;;4.90;99.90;;;;;;5073367;28;20223;-71
2021/12/27 02:16:18;;;;;;;4.60;3.85;;;4.90;99.90;;;;;;5075680;28;20246;-70
2021/12/27 02:18:48;;;;;;;7.07;4.90;;;4.90;99.90;;;;;;5048456;28;20330;-72
2021/12/27 02:21:32;;;;;;;6.80;4.90;;;4.90;99.90;;;;;;5056141;28;20275;-71
2021/12/27 02:24:11;;;;;;;6.25;4.30;;;4.90;99.90;;;;;;5066334;28;20306;-70
2021/12/27 02:26:51;;;;;;;5.40;3.78;;;4.90;99.90;;;;;;5066849;28;20745;-71
2021/12/27 02:29:28;;;;;;;5.70;4.30;;;4.90;99.90;;;;;;5079658;28;20195;-72
2021/12/27 02:32:15;;;;;;;4.85;4.20;;;4.90;99.90;;;;;;5034392;28;20230;-71
2021/12/27 02:34:44;;;;;;;4.47;3.85;;;4.90;99.90;;;;;;5035515;28;20220;-71
2021/12/27 02:37:26;;;;;;;5.20;4.10;;;4.90;99.90;;;;;;5061959;28;20558;-72
2021/12/27 02:39:58;;;;;;;5.18;3.95;;;4.90;99.90;;;;;;5070690;28;20226;-71
2021/12/27 02:42:33;;;;;;;5.18;4.22;;;4.90;99.90;;;;;;5047362;28;20227;-72
2021/12/27 02:45:05;;;;;;;4.07;3.63;;;4.90;99.90;;;;;;5045428;28;20215;-70
2021/12/27 02:47:49;;;;;;;3.75;3.20;;;4.90;99.90;;;;;;5045945;28;20282;-72
2021/12/27 02:53:34;;;;;;;3.30;3.00;;;4.90;99.90;;;;;;5046165;28;20230;-71
2021/12/27 02:56:09;;;;;;;4.40;3.65;;;4.90;99.90;;;;;;5046892;28;20216;-71
2021/12/27 02:59:06;;;;;;;4.85;3.92;;;4.90;99.90;;;;;;5033072;28;20192;-71
2021/12/27 03:01:36;;;;;;;3.92;3.35;;;4.90;99.90;;;;;;5045718;28;20224;-71
2021/12/27 03:04:10;;;;;;;3.28;2.85;;;4.90;99.90;;;;;;5043954;28;20220;-72
2021/12/27 03:06:54;;;;;;;4.82;3.65;;;4.90;99.90;;;;;;5044326;28;20219;-71
2021/12/27 03:09:45;;;;;;;3.47;3.17;;;4.90;99.90;;;;;;5046750;28;20184;-72
2021/12/27 03:12:20;;;;;;;3.55;3.00;;;4.90;99.90;;;;;;5046163;28;20216;-72
2021/12/27 03:14:59;;;;;;;3.58;3.15;;;4.90;99.90;;;;;;5044642;28;20994;-71
2021/12/27 03:17:37;;;;;;;2.97;2.55;;;4.90;99.90;;;;;;5061753;28;20200;-71
2021/12/27 03:20:20;;;;;;;4.38;3.47;;;4.90;99.90;;;;;;5053715;28;20251;-71
2021/12/27 03:22:52;;;;;;;4.80;3.85;;;4.90;99.90;;;;;;5057882;28;20222;-71
2021/12/27 03:25:32;;;;;;;3.15;2.75;;;4.90;99.90;;;;;;5046049;28;20259;-71
2021/12/27 03:28:07;;;;;;;4.28;3.40;;;4.90;99.90;;;;;;5032902;28;20196;-72
2021/12/27 03:30:38;;;;;;;4.45;3.47;;;4.90;99.90;;;;;;5054272;28;20219;-71
2021/12/27 03:36:02;;;;;;;4.43;3.08;;;4.90;99.90;;;;;;5061995;28;20225;-72
2021/12/27 03:38:33;;;;;;;4.13;3.63;;;4.90;99.90;;;;;;5071889;28;20261;-71
2021/12/27 03:41:31;;;;;;;4.47;3.22;;;4.90;99.90;;;;;;5051249;28;20546;-72
2021/12/27 03:44:14;;;;;;;4.50;3.08;;;4.90;99.90;;;;;;5040376;28;20871;-71
2021/12/27 03:46:44;;;;;;;4.65;4.20;;;4.90;99.90;;;;;;5026217;28;20221;-69
2021/12/27 03:49:16;;;;;;;5.35;3.90;;;4.90;99.90;;;;;;5040848;28;20408;-71
2021/12/27 03:51:47;;;;;;;3.72;3.10;;;4.90;99.90;;;;;;5042155;28;20609;-70
2021/12/27 03:54:22;;;;;;;3.55;3.17;;;4.90;99.90;;;;;;5049581;28;20204;-70
2021/12/27 03:56:56;;;;;;;5.25;3.47;;;4.90;99.90;;;;;;5047584;28;20222;-72
2021/12/27 03:59:37;;;;;;;5.20;2.55;;;4.90;99.90;;;;;;5031305;28;20197;-72
2021/12/27 04:02:09;;;;;;;3.13;2.83;;;4.90;99.90;;;;;;5044854;28;20255;-71
2021/12/27 04:04:40;;;;;;;2.92;2.60;;;4.90;99.90;;;;;;5036817;28;20219;-71
2021/12/27 04:07:13;;;;;;;2.70;2.50;;;4.90;99.90;;;;;;5048774;28;20712;-72
2021/12/27 04:10:02;;;;;;;4.13;3.20;;;4.90;99.90;;;;;;5034605;28;20613;-73
2021/12/27 04:12:38;;;;;;;3.75;2.60;;;4.90;99.90;;;;;;5037042;28;20289;-72
2021/12/27 04:15:26;;;;;;;6.03;3.88;;;4.90;99.90;;;;;;5037500;28;20228;-72
2021/12/27 04:17:55;;;;;;;4.32;3.92;;;4.90;99.90;;;;;;5049470;28;20195;-71
2021/12/27 04:20:33;;;;;;;3.03;2.78;;;4.90;99.90;;;;;;5049100;28;20283;-71
2021/12/27 04:23:08;;;;;;;3.20;2.92;;;4.90;99.90;;;;;;5049235;28;20212;-72
2021/12/27 04:25:42;;;;;;;4.28;3.17;;;5.00;99.90;;;;;;5058763;28;20224;-72
2021/12/27 04:28:13;;;;;;;3.08;2.67;;;5.00;99.90;;;;;;5037034;28;20193;-71
2021/12/27 04:30:58;;;;;;;5.07;3.42;;;4.90;99.90;;;;;;5033335;28;20237;-71
2021/12/27 04:33:36;;;;;;;4.63;3.20;;;4.90;99.90;;;;;;5046371;28;20832;-72
2021/12/27 04:36:08;;;;;;;3.58;2.95;;;4.90;99.90;;;;;;5047860;28;20747;-72
2021/12/27 04:38:46;;;;;;;6.40;3.13;;;5.00;99.90;;;;;;5044227;28;20629;-71
2021/12/27 04:41:21;;;;;;;3.47;2.60;;;4.90;99.90;;;;;;5026983;28;20653;-72
2021/12/27 04:44:02;;;;;;;2.70;2.50;;;4.90;99.90;;;;;;5034143;28;20262;-72
2021/12/27 04:46:36;;;;;;;2.85;2.53;;;4.90;99.90;;;;;;5021558;28;20212;-72
2021/12/27 04:49:18;;;;;;;3.95;2.90;;;5.00;99.90;;;;;;5048856;28;20204;-72
2021/12/27 04:51:51;;;;;;;3.25;2.75;;;5.00;99.90;;;;;;5035873;28;20216;-72
2021/12/27 04:54:25;;;;;;;3.60;2.60;;;5.00;99.90;;;;;;5050031;28;20224;-72
2021/12/27 04:57:10;;;;;;;3.05;2.58;;;5.00;99.90;;;;;;5044092;28;20220;-71
2021/12/27 04:59:46;;;;;;;4.30;2.80;;;4.90;99.90;;;;;;5051856;28;20239;-71
2021/12/27 05:02:26;;;;;;;3.08;2.35;;;5.00;99.90;;;;;;5061902;28;20215;-71
2021/12/27 05:05:04;;;;;;;3.13;2.65;;;5.00;99.90;;;;;;5060223;28;20216;-71
2021/12/27 05:07:37;;;;;;;2.95;2.65;;;5.00;99.90;;;;;;5053805;28;20204;-72
2021/12/27 05:10:12;;;;;;;3.10;2.70;;;5.00;99.90;;;;;;5047853;28;20220;-70
2021/12/27 05:13:02;;;;;;;3.20;2.90;;;5.00;99.90;;;;;;5030680;28;20219;-71
2021/12/27 05:15:35;;;;;;;2.42;2.22;;;5.00;99.90;;;;;;5045459;28;20278;-71
2021/12/27 05:18:07;;;;;;;3.08;2.42;;;5.00;99.90;;;;;;5046862;28;20277;-73
2021/12/27 05:20:38;;;;;;;3.65;2.80;;;5.00;99.90;;;;;;5030322;28;20219;-72
2021/12/27 05:23:18;;;;;;;3.15;2.95;;;5.00;99.90;;;;;;5047548;28;20589;-72
2021/12/27 05:25:51;;;;;;;4.38;2.50;;;5.00;99.90;;;;;;5044429;28;20224;-72
2021/12/27 05:28:23;;;;;;;3.38;2.90;;;5.00;99.90;;;;;;5037092;28;20192;-72
2021/12/27 05:31:40;;;;;;;3.65;2.50;;;5.00;99.90;;;;;;5033878;28;20717;-73
2021/12/27 05:34:20;;;;;;;2.50;2.30;;;5.00;99.90;;;;;;5039099;28;20244;-71
2021/12/27 05:37:01;;;;;;;3.50;2.38;;;5.00;99.90;;;;;;5041302;28;20293;-72
2021/12/27 05:39:34;;;;;;;2.75;2.50;;;5.00;99.90;;;;;;5044945;28;20240;-71
2021/12/27 05:42:10;;;;;;;2.20;1.73;;;5.00;99.90;;;;;;5047315;28;20239;-71
2021/12/27 05:44:44;;;;;;;2.67;2.20;;;5.00;99.90;;;;;;5038723;28;20296;-72
2021/12/27 05:50:09;;;;;;;2.70;2.00;;;5.00;99.90;;;;;;5043790;28;20274;-72
2021/12/27 05:52:41;;;;;;;3.47;2.67;;;5.00;99.90;;;;;;5045529;28;20214;-71
2021/12/27 05:55:13;;;;;;;3.00;2.30;;;5.00;99.90;;;;;;5054027;28;20256;-71
2021/12/27 05:57:42;;;;;;;3.33;2.20;;;5.00;99.90;;;;;;5051788;28;20252;-71
2021/12/27 06:00:16;;;;;;;3.65;2.30;;;5.00;99.90;;;;;;5028380;28;20270;-71
2021/12/27 06:02:53;;;;;;;3.40;2.38;;;5.00;99.90;;;;;;5046419;28;20611;-72
2021/12/27 06:05:32;;;;;;;2.17;1.98;;;5.00;99.90;;;;;;5037006;28;20223;-71
2021/12/27 06:08:04;;;;;;;2.13;1.88;;;5.00;99.90;;;;;;5033096;28;20203;-72
2021/12/27 06:10:38;;;;;;;3.10;2.45;;;5.00;99.90;;;;;;5037795;28;20216;-72
2021/12/27 06:13:12;;;;;;;2.00;1.70;;;5.00;99.90;;;;;;5048014;28;20291;-72
2021/12/27 06:15:50;;;;;;;3.67;2.60;;;5.00;99.90;;;;;;5034502;28;20927;-72
2021/12/27 06:18:40;;;;;;;3.20;2.05;;;5.00;99.90;;;;;;5050013;28;20193;-72
2021/12/27 06:21:21;;;;;;;3.53;2.22;;;5.00;99.90;;;;;;5033933;28;20251;-72
2021/12/27 06:23:53;;;;;;;2.67;2.47;;;5.00;99.90;;;;;;5045751;28;20222;-72
2021/12/27 06:26:22;;;;;;;2.17;1.90;;;5.00;99.90;;;;;;5040554;28;20237;-72
2021/12/27 06:28:59;;;;;;;3.70;2.45;;;5.00;99.90;;;;;;5046402;28;20214;-71
2021/12/27 06:31:29;;;;;;;2.92;2.65;;;5.00;99.90;;;;;;5034142;28;20605;-71
2021/12/27 06:34:04;;;;;;;4.28;2.65;;;5.00;99.90;;;;;;5047179;28;20734;-72
2021/12/27 06:36:35;;;;;;;3.25;2.33;;;5.00;99.90;;;;;;5046081;28;20259;-71
2021/12/27 06:39:11;;;;;;;2.75;2.08;;;5.00;99.90;;;;;;5045486;28;20192;-71
2021/12/27 06:41:48;;;;;;;2.50;2.25;;;5.00;99.90;;;;;;5045057;28;20227;-71
2021/12/27 06:44:23;;;;;;;2.67;1.88;;;5.00;99.90;;;;;;5046558;28;20215;-72
2021/12/27 06:46:56;;;;;;;2.55;2.35;;;5.00;99.90;;;;;;5054765;28;20765;-71
2021/12/27 06:49:31;;;;;;;3.30;2.33;;;5.00;99.90;;;;;;5039025;28;20254;-72
2021/12/27 06:52:08;;;;;;;2.40;1.90;;;5.00;99.90;;;;;;5050178;28;20622;-71
2021/12/27 06:54:40;;;;;;;2.00;1.80;;;5.00;99.90;;;;;;5049550;28;20749;-72
2021/12/27 06:57:11;;;;;;;1.98;1.75;;;5.00;99.90;;;;;;5064138;28;20307;-72
2021/12/27 07:02:50;;;;;;;2.78;2.20;;;5.00;99.90;;;;;;5046678;28;20279;-71
2021/12/27 07:05:23;;;;;;;2.30;2.10;;;5.00;99.90;;;;;;5049334;28;20315;-72
2021/12/27 07:08:08;;;;;;;2.40;2.10;;;5.00;99.90;;;;;;5047956;28;20200;-72
2021/12/27 07:10:43;;;;;;;1.60;1.50;;;5.00;99.90;;;;;;5047466;28;20220;-72
2021/12/27 07:13:20;;;;;;;1.83;1.70;;;5.00;99.90;;;;;;5050716;28;20240;-73
2021/12/27 07:15:50;;;;;;;1.95;1.75;;;5.00;99.90;;;;;;5048950;28;20266;-71
2021/12/27 07:18:36;;;;;;;2.13;1.92;;;5.00;99.90;;;;;;5050239;28;20184;-71
2021/12/27 07:21:08;;;;;;;1.90;1.70;;;5.00;99.90;;;;;;5044327;28;20712;-71
2021/12/27 07:23:42;;;;;;;2.30;2.10;;;5.00;99.90;;;;;;5054550;28;20216;-72
2021/12/27 07:29:08;;;;;;;1.95;1.63;;;5.00;99.90;;;;;;5039828;28;20706;-72
2021/12/27 07:31:42;;;;;;;2.20;1.85;;;5.00;99.90;;;;;;5029621;28;20225;-72
2021/12/27 07:34:32;;;;;;;2.05;1.80;;;5.00;99.90;;;;;;5056091;28;20213;-71
2021/12/27 07:37:12;;;;;;;2.15;1.52;;;5.00;99.90;;;;;;5049096;28;20221;-72
2021/12/27 07:39:45;;;;;;;1.90;1.48;;;5.00;99.90;;;;;;5041860;28;20742;-70
2021/12/27 07:42:32;;;;;;;1.75;1.65;;;5.00;99.90;;;;;;5054184;28;20220;-71
2021/12/27 07:45:05;;;;;;;1.75;1.38;;;5.00;99.90;;;;;;5060269;28;20219;-70
2021/12/27 07:47:39;;;;;;;1.80;1.70;;;5.00;99.90;;;;;;5056200;28;20202;-72
2021/12/27 07:50:19;;;;;;;2.22;1.60;;;5.00;99.90;;;;;;5053737;28;20215;-71
2021/12/27 07:52:57;;;;;;;1.50;1.40;;;5.00;99.90;;;;;;5053517;28;20295;-71
2021/12/27 07:55:33;;;;;;;1.55;1.40;;;5.00;99.90;;;;;;5043677;28;20234;-72
2021/12/27 07:58:30;;;;;;;2.33;1.65;;;5.00;99.90;;;;;;5065019;28;20188;-71
2021/12/27 08:01:01;;;;;;;1.63;1.52;;;5.00;99.90;;;;;;5040807;28;20232;-72
2021/12/27 08:03:31;;;;;;;1.67;1.55;;;5.00;99.90;;;;;;5040745;28;20573;-72
2021/12/27 08:06:15;;;;;;;2.20;1.40;;;5.00;99.90;;;;;;5029371;28;20745;-72
2021/12/27 08:09:07;;;;;;;2.95;1.70;;;5.00;99.90;;;;;;5032279;28;20212;-72
2021/12/27 08:11:44;;;;;;;2.20;1.88;;;5.00;99.90;;;;;;5020105;28;20225;-71
2021/12/27 08:14:31;;;;;;;1.88;1.60;;;5.00;99.90;;;;;;5037963;28;20260;-72
2021/12/27 08:17:00;;;;;;;1.77;1.67;;;5.00;99.90;;;;;;5048392;28;20307;-72
2021/12/27 08:19:37;;;;;;;1.48;1.38;;;5.00;99.90;;;;;;5049387;28;20202;-72
2021/12/27 08:22:13;;;;;;;2.13;1.50;;;5.00;99.90;;;;;;5047434;28;20289;-71
2021/12/27 08:24:51;;;;;;;2.10;1.90;;;5.00;99.90;;;;;;5046824;28;20212;-70
2021/12/27 08:27:30;;;;;;;2.10;1.90;;;5.00;99.90;;;;;;5049123;28;20219;-71
2021/12/27 08:30:05;;;;;;;1.70;1.60;;;5.00;99.90;;;;;;5037241;28;20916;-71
2021/12/27 08:32:45;;;;;;;2.38;1.90;;;5.00;99.90;;;;;;5048922;28;20561;-72
2021/12/27 08:35:20;;;;;;;1.70;1.60;;;5.00;99.90;;;;;;5048450;28;20304;-71
2021/12/27 08:37:58;;;;;;;2.03;1.42;;;5.00;99.90;;;;;;5029600;28;20266;-71
2021/12/27 08:40:31;;;;;;;2.45;2.25;;;5.00;99.90;;;;;;5044379;28;20216;-70
2021/12/27 08:43:03;;;;;;;2.92;2.00;;;5.00;99.90;;;;;;5046651;28;20440;-67
2021/12/27 08:45:48;;;;;;;1.58;1.48;;;5.10;99.90;;;;;;5041688;28;20303;-66
2021/12/27 08:48:17;;;;;;;3.45;2.45;;;5.10;99.90;;;;;;5061090;28;20220;-67
2021/12/27 08:50:55;;;;;;;2.67;2.40;;;5.10;99.90;;;;;;5047251;28;20262;-68
2021/12/27 08:53:42;;;;;;;4.38;2.45;;;5.10;99.90;;;;;;5044708;28;20208;-66
2021/12/27 08:56:13;;;;;;;2.63;2.35;;;5.20;99.90;;;;;;5060435;28;20212;-67
2021/12/27 08:58:46;;;;;;;2.05;1.75;;;5.20;99.90;;;;;;5042098;28;20722;-67
2021/12/27 09:01:18;;;;;;;2.55;2.00;;;5.10;99.90;;;;;;5044427;28;20228;-67
2021/12/27 09:04:04;;;;;;;4.15;2.67;;;5.10;99.90;;;;;;5043591;28;20233;-67
2021/12/27 09:06:39;;;;;;;2.50;2.30;;;5.10;99.90;;;;;;5037700;28;20223;-66
2021/12/27 09:09:20;;;;;;;6.68;2.35;;;5.10;99.90;;;;;;5053675;28;20188;-66
2021/12/27 09:12:01;;;;;;;3.50;2.65;;;5.10;99.90;;;;;;5045200;28;20224;-71
2021/12/27 09:14:36;;;;;;;3.78;2.50;;;5.10;99.90;;;;;;5044449;28;20216;-72
2021/12/27 09:17:12;;;;;;;5.18;2.65;;;5.10;99.90;;;;;;5044701;28;20636;-71
2021/12/27 09:19:42;;;;;;;2.65;2.45;;;5.10;99.90;;;;;;5043546;28;20624;-71
2021/12/27 09:22:19;;;;;;;3.33;2.40;;;5.10;99.90;;;;;;5044040;28;20252;-71
2021/12/27 09:24:51;;;;;;;2.03;1.92;;;5.10;99.90;;;;;;5019095;28;20234;-71
2021/12/27 09:27:24;;;;;;;2.97;2.47;;;5.10;99.90;;;;;;5045713;28;20275;-72
2021/12/27 09:30:00;;;;;;;1.92;1.73;;;5.10;99.90;;;;;;5044819;28;20259;-70
2021/12/27 09:32:31;;;;;;;2.60;2.40;;;5.10;99.90;;;;;;5063200;28;20244;-71
2021/12/27 09:35:04;;;;;;;2.78;2.00;;;5.10;99.90;;;;;;5036124;28;20208;-72
2021/12/27 09:37:35;;;;;;;3.90;2.80;;;5.10;99.90;;;;;;5037419;28;20272;-71
2021/12/27 09:40:09;;;;;;;4.30;2.50;;;5.10;99.90;;;;;;5035812;28;20188;-72
2021/12/27 09:42:48;;;;;;;1.85;1.67;;;5.10;99.90;;;;;;5038731;28;20192;-71
2021/12/27 09:45:17;;;;;;;2.88;2.50;;;5.10;99.90;;;;;;5037793;28;20224;-70
2021/12/27 09:50:51;;;;;;;3.78;2.42;;;5.10;99.90;;;;;;5030140;28;20222;-70
2021/12/27 09:53:38;;;;;;;2.63;2.42;;;5.10;99.90;;;;;;5043301;28;20673;-71
2021/12/27 09:56:10;;;;;;;2.08;1.85;;;5.10;99.90;;;;;;5025321;28;20745;-71
2021/12/27 09:58:50;;;;;;;3.65;2.28;;;5.10;99.90;;;;;;5047276;28;20196;-72
2021/12/27 10:01:25;;;;;;;2.22;1.80;;;5.10;99.90;;;;;;5015939;28;20223;-70
2021/12/27 10:03:58;;;;;;;1.83;1.50;;;5.10;99.90;;;;;;5047305;28;20204;-72
2021/12/27 10:06:47;;;;;;;2.60;1.98;;;5.20;99.90;;;;;;5031238;28;20254;-72
2021/12/27 10:09:25;;;;;;;2.28;1.92;;;5.20;99.90;;;;;;5043022;28;20192;-72
2021/12/27 10:12:08;;;;;;;1.50;1.40;;;5.20;99.90;;;;;;5034885;28;20227;-72
2021/12/27 10:14:42;;;;;;;3.33;1.98;;;5.20;99.90;;;;;;5046407;28;20642;-72
2021/12/27 10:17:24;;;;;;;2.45;2.08;;;5.20;99.90;;;;;;5037697;28;20219;-72
2021/12/27 10:20:15;;;;;;;2.50;1.80;;;5.20;99.90;;;;;;5039657;28;20192;-71
2021/12/27 10:22:59;;;;;;;2.40;1.90;;;5.20;99.90;;;;;;5003222;28;20189;-72
2021/12/27 10:25:33;;;;;;;2.83;1.70;;;5.20;99.90;;;;;;5061837;28;20319;-72
2021/12/27 10:28:13;;;;;;;1.83;1.50;;;5.20;99.90;;;;;;5057493;28;20188;-72
2021/12/27 10:30:46;;;;;;;2.17;1.90;;;5.20;99.90;;;;;;5050321;28;20285;-72
2021/12/27 10:39:22;;;;;;;2.45;1.52;;;5.20;99.90;;;;;;5037228;28;20565;-72
2021/12/27 10:42:04;;;;;;;;;;;;;;;;;;;;;
2021/12/27 10:44:42;;;;;;;1.83;1.50;;;5.30;99.90;;;;;;5048360;28;20222;-72
2021/12/27 10:47:38;;;;;;;2.38;2.17;;;5.30;99.90;;;;;;5046860;28;20223;-71
2021/12/27 10:50:12;;;;;;;1.60;1.35;;;5.30;99.90;;;;;;5036048;28;20225;-71
2021/12/27 10:56:16;;;;;;;1.70;1.60;;;5.30;99.90;;;;;;4987143;28;20269;-71
2021/12/27 10:58:56;;;;;;;1.85;1.70;;;5.30;99.90;;;;;;5058897;28;20200;-71
2021/12/27 11:01:41;;;;;;;2.13;1.48;;;5.30;99.90;;;;;;5033285;28;20212;-72
2021/12/27 11:04:26;;;;;;;1.40;1.27;;;5.30;99.90;;;;;;5049385;28;20213;-70
2021/12/27 11:06:57;;;;;;;2.55;1.88;;;5.30;99.90;;;;;;5035511;28;20250;-71
2021/12/27 11:09:31;;;;;;;2.53;2.28;;;5.30;99.90;;;;;;5045601;28;20197;-72
2021/12/27 11:12:10;;;;;;;1.60;1.50;;;5.30;99.90;;;;;;5035346;28;20250;-71
2021/12/27 11:14:44;;;;;;;1.75;1.20;;;5.30;99.90;;;;;;5049885;28;20258;-72
2021/12/27 11:17:20;;;;;;;1.98;1.67;;;5.30;99.90;;;;;;5047737;28;20207;-72
2021/12/27 11:19:50;;;;;;;1.70;1.30;;;5.30;99.90;;;;;;5049323;28;20295;-70
2021/12/27 11:22:24;;;;;;;2.28;1.55;;;5.30;99.90;;;;;;5048206;28;20193;-71
2021/12/27 11:25:05;;;;;;;2.50;2.28;;;5.30;99.90;;;;;;5047659;28;20240;-71
2021/12/27 11:27:38;;;;;;;1.77;1.30;;;5.30;99.90;;;;;;5043821;28;20232;-71
2021/12/27 11:30:16;;;;;;;2.25;1.55;;;5.30;99.90;;;;;;5047914;28;20223;-71
2021/12/27 11:33:20;;;;;;;2.42;1.33;;;5.30;99.90;;;;;;5064082;28;20188;-72
2021/12/27 11:36:13;;;;;;;1.85;1.52;;;5.30;99.90;;;;;;5061947;28;20243;-71
2021/12/27 11:38:51;;;;;;;1.75;1.55;;;5.30;99.90;;;;;;5030708;28;20935;-72
2021/12/27 11:41:35;;;;;;;2.15;1.90;;;5.30;99.90;;;;;;5051841;28;20591;-71
2021/12/27 11:44:09;;;;;;;2.67;1.60;;;5.30;99.90;;;;;;5030726;28;20299;-72
2021/12/27 11:47:12;;;;;;;1.30;1.20;;;5.30;99.90;;;;;;5069425;28;20305;-72
2021/12/27 11:49:55;;;;;;;1.55;1.42;;;5.30;99.90;;;;;;5065694;28;20689;-72
2021/12/27 11:52:29;;;;;;;1.83;1.30;;;5.30;99.90;;;;;;5049664;28;20247;-72
2021/12/27 11:55:25;;;;;;;;;;;;;;;;;;;;;
2021/12/27 11:58:06;;;;;;;2.40;1.75;;;5.30;99.90;;;;;;5024857;28;20192;-71
2021/12/27 12:00:54;;;;;;;1.67;1.45;;;5.30;99.90;;;;;;5047404;28;20869;-71
2021/12/27 12:03:38;;;;;;;1.63;1.52;;;5.30;99.90;;;;;;5051235;28;20295;-72
2021/12/27 12:06:37;;;;;;;1.50;1.40;;;5.40;99.90;;;;;;5033425;28;20306;-71
2021/12/27 12:09:37;;;;;;;1.60;1.50;;;5.40;99.90;;;;;;5034732;28;20283;-71
2021/12/27 12:12:38;;;;;;;1.55;1.27;;;5.40;99.90;;;;;;5039309;28;20230;-70
2021/12/27 12:15:12;;;;;;;1.70;1.52;;;5.40;99.90;;;;;;5030474;28;20229;-70
2021/12/27 12:17:59;;;;;;;3.08;1.55;;;5.30;99.90;;;;;;5032411;28;20177;-71
2021/12/27 12:20:37;;;;;;;2.60;2.00;;;5.40;99.90;;;;;;5037057;28;20444;-66
2021/12/27 12:23:22;;;;;;;4.07;1.70;;;5.40;99.90;;;;;;5042803;28;20441;-66
2021/12/27 12:26:06;;;;;;;1.63;1.45;;;5.50;99.90;;;;;;5033576;28;20220;-66
2021/12/27 12:28:41;;;;;;;2.00;1.73;;;5.50;99.90;;;;;;5044453;28;20300;-66
2021/12/27 12:31:38;;;;;;;1.70;1.60;;;5.50;99.90;;;;;;5013965;28;20228;-66
2021/12/27 12:34:22;;;;;;;1.50;1.40;;;5.40;99.90;;;;;;5041879;28;20290;-66
2021/12/27 12:36:53;;;;;;;2.72;1.30;;;5.40;99.90;;;;;;5048411;28;20220;-66
2021/12/27 12:39:38;;;;;;;2.33;1.60;;;5.40;99.90;;;;;;5040707;28;20713;-68
2021/12/27 12:42:30;;;;;;;1.80;1.40;;;5.40;99.90;;;;;;5049077;28;20244;-66
2021/12/27 12:45:07;;;;;;;2.22;1.55;;;5.40;99.90;;;;;;5047713;28;20214;-66
2021/12/27 12:47:40;;;;;;;4.78;1.80;;;5.40;99.90;;;;;;5042420;28;20208;-66
2021/12/27 12:50:15;;;;;;;1.67;1.30;;;5.40;99.90;;;;;;5047137;28;20266;-66
2021/12/27 12:52:55;;;;;;;1.50;1.40;;;5.40;99.90;;;;;;5048487;28;20203;-67
2021/12/27 12:55:27;;;;;;;2.40;1.40;;;5.40;99.90;;;;;;5032482;28;20303;-66
2021/12/27 12:58:15;;;;;;;2.08;1.63;;;5.40;99.90;;;;;;5022626;28;20242;-66
2021/12/27 13:00:45;;;;;;;2.15;1.10;;;5.40;99.90;;;;;;5038868;28;20303;-67
2021/12/27 13:03:16;;;;;;;1.70;1.60;;;5.40;99.90;;;;;;5044720;28;20212;-66
2021/12/27 13:06:08;;;;;;;1.63;1.40;;;5.40;99.90;;;;;;5039455;28;20223;-66
2021/12/27 13:09:12;;;;;;;;;;;;;;;;;;;;;
2021/12/27 13:12:13;;;;;;;2.10;1.75;;;5.40;99.90;;;;;;5046525;28;20267;-66
2021/12/27 13:14:43;;;;;;;3.72;1.65;;;5.40;99.90;;;;;;5054113;28;20216;-66
2021/12/27 13:17:37;;;;;;;1.63;1.30;;;5.40;99.90;;;;;;5043544;28;20254;-66
2021/12/27 13:20:11;;;;;;;1.60;1.42;;;5.40;99.90;;;;;;5036770;28;20201;-66
2021/12/27 13:22:54;;;;;;;2.70;1.77;;;5.40;99.90;;;;;;5047883;28;20265;-66
2021/12/27 13:25:43;;;;;;;3.72;1.90;;;5.40;99.90;;;;;;5061394;28;20333;-66
2021/12/27 13:28:21;;;;;;;1.48;1.38;;;5.40;99.90;;;;;;5031007;28;20288;-66
2021/12/27 13:31:00;;;;;;;1.60;1.25;;;5.40;99.90;;;;;;5042177;28;20759;-66
2021/12/27 13:33:45;;;;;;;1.83;1.50;;;5.40;99.90;;;;;;5045644;28;20208;-66
2021/12/27 13:36:33;;;;;;;1.80;1.33;;;5.40;99.90;;;;;;5027475;28;20291;-66
2021/12/27 13:39:25;;;;;;;1.65;1.45;;;5.40;99.90;;;;;;5061987;28;20184;-66
2021/12/27 13:42:06;;;;;;;1.77;1.40;;;5.40;99.90;;;;;;5042385;28;20583;-66
2021/12/27 13:44:42;;;;;;;1.88;1.27;;;5.40;99.90;;;;;;5045006;28;20775;-66
2021/12/27 13:47:33;;;;;;;1.35;1.23;;;5.40;99.90;;;;;;5047868;28;20648;-66
2021/12/27 13:50:07;;;;;;;1.95;1.70;;;5.40;99.90;;;;;;5051971;28;20234;-66
2021/12/27 13:53:36;;;;;;;1.65;1.55;;;5.40;99.90;;;;;;5041900;28;20697;-66
2021/12/27 13:56:37;;;;;;;1.42;1.20;;;5.40;99.90;;;;;;4993763;28;20223;-67
2021/12/27 13:59:15;;;;;;;1.50;1.30;;;5.40;99.90;;;;;;5066053;28;20251;-66
2021/12/27 14:01:56;;;;;;;1.73;1.20;;;5.40;99.90;;;;;;5059457;28;20273;-65
2021/12/27 14:04:59;;;;;;;1.92;1.48;;;5.40;99.90;;;;;;5067300;28;20237;-66
2021/12/27 14:07:28;;;;;;;1.80;1.70;;;5.40;99.90;;;;;;5064924;28;20265;-66
2021/12/27 14:10:09;;;;;;;1.45;1.35;;;5.40;99.90;;;;;;5064045;28;20222;-66
2021/12/27 14:12:58;;;;;;;1.60;1.50;;;5.40;99.90;;;;;;5065582;28;20227;-67
2021/12/27 14:15:32;;;;;;;3.55;1.25;;;5.40;99.90;;;;;;5057635;28;20219;-66
2021/12/27 14:18:30;;;;;;;1.27;1.15;;;5.40;99.90;;;;;;5066867;28;20241;-66
2021/12/27 14:21:18;;;;;;;1.13;1.00;;;5.40;99.90;;;;;;5060955;28;20223;-66
2021/12/27 14:24:23;;;;;;;2.80;1.90;;;5.40;99.90;;;;;;5070553;28;20226;-66
2021/12/27 14:26:56;;;;;;;1.15;1.05;;;5.40;99.90;;;;;;5033833;28;20235;-67
2021/12/27 14:29:30;;;;;;;2.00;1.60;;;5.50;99.90;;;;;;5040440;28;20208;-66
2021/12/27 14:32:07;;;;;;;2.10;1.73;;;5.40;99.90;;;;;;5028240;28;20224;-66